Time;durP1;ratioP1;P1;durP2;ratioP2;P2;SDS_P1;SDS_P2;PMS_P1;PMS_P2;Temp;Humidity;BMP_temperature;BMP_pressure;BME280_temperature;BME280_humidity;BME280_pressure;Samples;Min_cycle;Max_cycle;Signal;HPM_P1;HPM_P2
2023/04/10 00:00:44;;;;;;;19.50;17.50;;;;;;;10.98;95.58;100255.89;106143;1253;61360;-78
2023/04/10 00:03:11;;;;;;;20.40;18.40;;;;;;;10.92;95.66;100260.60;106089;1258;61375;-75
2023/04/10 00:05:40;;;;;;;21.20;19.10;;;;;;;10.91;95.81;100258.52;106048;1255;73755;-75
2023/04/10 00:08:07;;;;;;;27.40;21.10;;;;;;;10.90;95.87;100254.94;105744;1253;71483;-76
2023/04/10 00:10:34;;;;;;;23.10;20.60;;;;;;;10.91;96.00;100255.14;105988;1259;73887;-77
2023/04/10 00:13:08;;;;;;;21.60;19.40;;;;;;;10.94;95.74;100259.35;105870;1253;60537;-77
2023/04/10 00:15:35;;;;;;;22.50;19.10;;;;;;;10.94;96.10;100260.17;105838;1253;61363;-78
2023/04/10 00:18:04;;;;;;;21.70;19.50;;;;;;;10.94;95.68;100261.80;105848;1253;74777;-76
2023/04/10 00:20:31;;;;;;;21.00;18.90;;;;;;;10.97;95.51;100257.95;105940;1257;69484;-75
2023/04/10 00:23:00;;;;;;;20.30;18.10;;;;;;;10.99;95.31;100257.40;105967;1255;72755;-78
2023/04/10 00:25:28;;;;;;;25.30;18.00;;;;;;;10.96;95.17;100253.42;105944;1253;61704;-77
2023/04/10 00:27:55;;;;;;;20.10;18.10;;;;;;;10.96;95.40;100252.92;105899;1256;60306;-76
2023/04/10 00:30:21;;;;;;;19.40;17.50;;;;;;;10.96;95.35;100256.40;105851;1257;72532;-75
2023/04/10 00:32:48;;;;;;;20.50;18.50;;;;;;;11.00;95.35;100259.07;105905;1255;71307;-78
2023/04/10 00:35:18;;;;;;;19.50;17.10;;;;;;;10.97;94.98;100257.77;105910;1257;73885;-77
2023/04/10 00:37:46;;;;;;;19.00;17.00;;;;;;;10.96;95.19;100256.77;106100;1253;61750;-78
2023/04/10 00:40:14;;;;;;;20.20;17.80;;;;;;;10.95;95.30;100261.48;105929;1253;60365;-78
2023/04/10 00:42:43;;;;;;;19.90;17.80;;;;;;;10.94;95.02;100258.39;105959;1253;74112;-79
2023/04/10 00:45:11;;;;;;;18.80;17.00;;;;;;;10.90;95.22;100256.90;105801;1253;68495;-82
2023/04/10 00:47:39;;;;;;;19.70;17.70;;;;;;;10.89;95.37;100255.04;105905;1256;73372;-80
2023/04/10 00:50:07;;;;;;;20.70;18.40;;;;;;;10.90;95.24;100257.77;105663;1253;60495;-76
2023/04/10 00:52:35;;;;;;;19.80;17.90;;;;;;;10.89;95.12;100255.23;105870;1253;60451;-78
2023/04/10 00:55:05;;;;;;;18.90;16.80;;;;;;;10.80;95.32;100254.15;105947;1257;73076;-79
2023/04/10 00:57:32;;;;;;;19.90;17.70;;;;;;;10.79;95.12;100254.81;105974;1254;71780;-78
2023/04/10 01:00:00;;;;;;;19.90;16.40;;;;;;;10.81;95.10;100252.98;106011;1255;72346;-78
2023/04/10 01:02:27;;;;;;;17.90;16.10;;;;;;;10.81;94.99;100255.65;105918;1253;60519;-77
2023/04/10 01:04:55;;;;;;;17.40;15.70;;;;;;;10.83;95.38;100253.73;106085;1253;60531;-75
2023/04/10 01:07:41;;;;;;;17.90;14.80;;;;;;;10.83;95.13;100251.21;105861;1258;74001;-75
2023/04/10 01:10:35;;;;;;;16.20;14.50;;;;;;;10.82;95.20;100252.16;105969;1253;71422;-74
2023/04/10 01:13:10;;;;;;;16.30;14.40;;;;;;;10.83;95.11;100251.75;105970;1253;73985;-75
2023/04/10 01:15:48;;;;;;;16.20;14.10;;;;;;;10.83;95.16;100249.92;105979;1252;60534;-75
2023/04/10 01:18:21;;;;;;;15.30;13.80;;;;;;;10.82;95.26;100252.52;105991;1258;60506;-76
2023/04/10 01:20:48;;;;;;;19.40;14.60;;;;;;;10.83;95.15;100247.66;105766;1258;74591;-75
2023/04/10 01:23:39;;;;;;;16.20;14.50;;;;;;;10.84;95.24;100247.38;105925;1253;71817;-76
2023/04/10 01:26:10;;;;;;;19.00;16.20;;;;;;;10.88;95.11;100247.15;105879;1258;72556;-75
2023/04/10 01:29:07;;;;;;;15.90;14.20;;;;;;;10.90;95.01;100239.85;105829;1253;61195;-75
2023/04/10 01:31:40;;;;;;;18.00;16.10;;;;;;;10.89;94.94;100240.84;105690;1253;60463;-73
2023/04/10 01:34:15;;;;;;;19.30;16.00;;;;;;;10.88;94.87;100239.48;105941;1253;74907;-75
2023/04/10 01:36:50;;;;;;;16.40;14.80;;;;;;;10.88;94.93;100239.58;105965;1258;71426;-77
2023/04/10 01:39:20;;;;;;;16.20;14.60;;;;;;;10.89;94.89;100242.40;105861;1253;73561;-77
2023/04/10 01:41:51;;;;;;;17.80;14.10;;;;;;;10.89;94.85;100240.51;105762;1256;60640;-77
2023/04/10 01:44:24;;;;;;;15.30;13.70;;;;;;;10.85;94.80;100247.11;105993;1258;61140;-78
2023/04/10 01:46:51;;;;;;;16.20;13.80;;;;;;;10.81;94.81;100247.02;105810;1253;74519;-77
2023/04/10 01:49:18;;;;;;;15.40;13.10;;;;;;;10.79;95.18;100251.23;105836;1253;71655;-77
2023/04/10 01:51:46;;;;;;;17.70;15.30;;;;;;;10.77;95.05;100248.80;105849;1254;70912;-76
2023/04/10 01:54:13;;;;;;;16.00;14.40;;;;;;;10.75;95.11;100249.58;105715;1253;61075;-78
2023/04/10 01:56:40;;;;;;;16.20;14.50;;;;;;;10.74;95.25;100248.24;105720;1253;60830;-77
2023/04/10 01:59:07;;;;;;;17.00;14.80;;;;;;;10.73;95.35;100252.24;105934;1258;75329;-78
2023/04/10 02:01:34;;;;;;;17.10;15.30;;;;;;;10.72;95.45;100254.33;105779;1253;70536;-80
2023/04/10 02:04:02;;;;;;;16.30;14.60;;;;;;;10.71;95.66;100253.27;106149;1256;73675;-74
2023/04/10 02:06:42;;;;;;;20.10;17.10;;;;;;;10.75;95.78;100256.98;106197;1253;61435;-79
2023/04/10 02:09:27;;;;;;;24.10;17.50;;;;;;;10.74;95.62;100254.48;106016;1253;61513;-78
2023/04/10 02:12:01;;;;;;;21.20;17.70;;;;;;;10.70;95.66;100255.21;105809;1257;74731;-78
2023/04/10 02:14:35;;;;;;;18.30;16.10;;;;;;;10.68;95.85;100256.51;105979;1253;71663;-77
2023/04/10 02:17:04;;;;;;;19.20;17.00;;;;;;;10.66;95.71;100255.63;105943;1253;73689;-80
2023/04/10 02:19:32;;;;;;;20.60;17.10;;;;;;;10.65;95.88;100250.04;105594;1253;61318;-77
2023/04/10 02:22:05;;;;;;;17.80;15.90;;;;;;;10.65;95.88;100256.08;105792;1252;61732;-77
2023/04/10 02:24:36;;;;;;;19.80;17.70;;;;;;;10.64;95.97;100256.15;105956;1255;75037;-77
2023/04/10 02:27:03;;;;;;;21.30;16.80;;;;;;;10.61;96.03;100261.24;105982;1258;70529;-77
2023/04/10 02:29:36;;;;;;;21.50;18.00;;;;;;;10.61;96.11;100255.96;105985;1252;73583;-78
2023/04/10 02:32:06;;;;;;;20.90;17.00;;;;;;;10.59;96.39;100256.95;106040;1253;60408;-76
2023/04/10 02:34:34;;;;;;;23.80;18.40;;;;;;;10.56;96.25;100257.55;105962;1253;60512;-78
2023/04/10 02:37:04;;;;;;;22.20;18.30;;;;;;;10.54;96.65;100258.99;105948;1258;75394;-77
2023/04/10 02:39:32;;;;;;;22.70;19.10;;;;;;;10.53;96.91;100258.20;106026;1253;73523;-77
2023/04/10 02:41:58;;;;;;;21.30;17.90;;;;;;;10.54;96.86;100259.49;105904;1253;73646;-74
2023/04/10 02:44:25;;;;;;;24.40;21.50;;;;;;;10.57;96.90;100260.45;106101;1253;60502;-75
2023/04/10 02:46:53;;;;;;;22.60;18.90;;;;;;;10.57;97.10;100255.07;106027;1255;61463;-77
2023/04/10 02:49:20;;;;;;;28.70;19.70;;;;;;;10.58;97.14;100260.98;105967;1256;73938;-78
2023/04/10 02:51:47;;;;;;;26.00;20.80;;;;;;;10.57;97.25;100262.90;105777;1258;71360;-76
2023/04/10 02:54:16;;;;;;;25.00;20.40;;;;;;;10.59;96.72;100262.52;105760;1253;73657;-78
2023/04/10 02:56:44;;;;;;;24.20;20.20;;;;;;;10.55;96.84;100263.99;105945;1253;61129;-76
2023/04/10 02:59:12;;;;;;;24.80;20.80;;;;;;;10.50;96.90;100263.95;105979;1253;60417;-78
2023/04/10 03:01:39;;;;;;;24.30;19.00;;;;;;;10.45;97.19;100267.30;106150;1253;73419;-76
2023/04/10 03:04:07;;;;;;;23.00;20.20;;;;;;;10.44;97.38;100270.01;106032;1258;70156;-78
2023/04/10 03:06:38;;;;;;;23.00;20.30;;;;;;;10.42;97.44;100267.94;106243;1258;72678;-78
2023/04/10 03:09:06;;;;;;;24.90;20.70;;;;;;;10.39;97.59;100264.83;106376;1253;60496;-76
2023/04/10 03:11:34;;;;;;;23.20;20.20;;;;;;;10.40;97.67;100262.41;106115;1253;60307;-81
2023/04/10 03:14:01;;;;;;;21.90;19.50;;;;;;;10.42;97.81;100261.75;105965;1258;73879;-76
2023/04/10 03:16:28;;;;;;;24.90;20.20;;;;;;;10.41;97.85;100266.77;105702;1253;70208;-75
2023/04/10 03:18:55;;;;;;;24.80;20.30;;;;;;;10.43;98.04;100265.02;105972;1256;70273;-79
2023/04/10 03:21:26;;;;;;;22.60;19.80;;;;;;;10.47;98.14;100266.06;105945;1253;61654;-80
2023/04/10 03:23:54;;;;;;;22.90;18.80;;;;;;;10.49;97.97;100265.34;105953;1253;61467;-75
2023/04/10 03:26:22;;;;;;;22.60;19.90;;;;;;;10.51;97.87;100265.09;105977;1253;73286;-75
2023/04/10 03:28:50;;;;;;;21.20;19.00;;;;;;;10.54;97.54;100265.88;105878;1253;71539;-74
2023/04/10 03:31:19;;;;;;;22.60;18.90;;;;;;;10.55;97.76;100263.63;106009;1253;73215;-77
2023/04/10 03:33:47;;;;;;;22.70;20.00;;;;;;;10.54;97.66;100264.38;106071;1258;61514;-77
2023/04/10 03:36:14;;;;;;;22.50;20.10;;;;;;;10.58;97.57;100266.34;105911;1254;62697;-76
2023/04/10 03:38:41;;;;;;;22.60;20.20;;;;;;;10.59;97.31;100271.85;105968;1256;74765;-76
2023/04/10 03:41:10;;;;;;;25.00;20.30;;;;;;;10.61;97.68;100271.73;105884;1256;71509;-79
2023/04/10 03:43:38;;;;;;;23.70;20.50;;;;;;;10.61;97.20;100270.64;106001;1253;72557;-79
2023/04/10 03:46:05;;;;;;;25.10;21.70;;;;;;;10.62;97.47;100273.16;105941;1259;60531;-75
2023/04/10 03:48:35;;;;;;;23.00;20.40;;;;;;;10.60;97.59;100268.73;105837;1254;60873;-78
2023/04/10 03:51:02;;;;;;;26.10;20.10;;;;;;;10.60;97.25;100272.35;106001;1255;72633;-79
2023/04/10 03:53:29;;;;;;;23.40;19.80;;;;;;;10.59;97.29;100270.33;105939;1257;70593;-80
2023/04/10 03:55:57;;;;;;;19.00;17.10;;;;;;;10.54;97.49;100270.22;105836;1259;73081;-76
2023/04/10 03:58:28;;;;;;;19.10;17.00;;;;;;;10.54;97.16;100277.16;105977;1253;60450;-80
2023/04/10 04:00:55;;;;;;;18.70;16.80;;;;;;;10.53;97.36;100277.46;106027;1253;60503;-79
2023/04/10 04:03:30;;;;;;;20.60;18.40;;;;;;;10.48;97.45;100279.16;106070;1253;74880;-78
2023/04/10 04:06:11;;;;;;;19.50;16.60;;;;;;;10.48;97.30;100283.32;105929;1257;71131;-77
2023/04/10 04:08:44;;;;;;;19.90;17.70;;;;;;;10.46;97.31;100282.77;105995;1253;74099;-75
2023/04/10 04:11:37;;;;;;;19.90;17.80;;;;;;;10.43;97.46;100287.97;105831;1254;61810;-76
2023/04/10 04:14:14;;;;;;;21.30;17.90;;;;;;;10.44;97.22;100289.14;105972;1253;61225;-77
2023/04/10 04:16:41;;;;;;;20.90;18.10;;;;;;;10.45;97.39;100287.34;106301;1253;73839;-76
2023/04/10 04:19:35;;;;;;;20.90;18.60;;;;;;;10.41;97.16;100292.60;105900;1258;70741;-75
2023/04/10 04:22:14;;;;;;;22.40;19.80;;;;;;;10.40;97.04;100296.14;105922;1257;71497;-78
2023/04/10 04:25:02;;;;;;;23.10;18.70;;;;;;;10.35;97.15;100293.24;105846;1253;60629;-75
2023/04/10 04:27:52;;;;;;;21.10;18.90;;;;;;;10.33;97.17;100297.30;105916;1253;60403;-78
2023/04/10 04:30:36;;;;;;;;;;;;;;;10.31;97.11;100299.45;106083;1253;74745;-75
2023/04/10 04:33:12;;;;;;;22.40;19.10;;;;;;;10.28;96.99;100298.30;105891;1255;68414;-79
2023/04/10 04:35:52;;;;;;;25.40;21.00;;;;;;;10.28;97.21;100300.46;105829;1258;72716;-76
2023/04/10 04:38:33;;;;;;;22.40;19.00;;;;;;;10.27;97.40;100301.67;105994;1252;60646;-75
2023/04/10 04:41:18;;;;;;;24.70;20.10;;;;;;;10.30;97.00;100304.73;106018;1253;60452;-76
2023/04/10 04:44:08;;;;;;;23.20;19.70;;;;;;;10.27;96.93;100303.04;106025;1253;74615;-76
2023/04/10 04:46:54;;;;;;;24.40;19.40;;;;;;;10.21;96.95;100304.61;105871;1258;69249;-77
2023/04/10 04:49:23;;;;;;;21.90;18.20;;;;;;;10.21;97.07;100306.61;105938;1259;70143;-79
2023/04/10 04:52:13;;;;;;;22.40;17.40;;;;;;;10.19;97.37;100306.62;105897;1253;62104;-78
2023/04/10 04:54:48;;;;;;;21.90;18.00;;;;;;;10.21;97.44;100311.88;105993;1258;61313;-79
2023/04/10 04:57:24;;;;;;;20.80;16.90;;;;;;;10.20;97.61;100312.60;106170;1256;73993;-79
2023/04/10 04:59:59;;;;;;;19.30;17.00;;;;;;;10.21;97.54;100315.80;105910;1258;71081;-80
2023/04/10 05:02:49;;;;;;;19.70;17.60;;;;;;;10.29;97.27;100319.16;106162;1253;72576;-78
2023/04/10 05:05:36;;;;;;;19.10;17.10;;;;;;;10.28;96.89;100322.07;106087;1253;61893;-75
2023/04/10 05:08:21;;;;;;;18.90;16.80;;;;;;;10.28;96.87;100321.38;106044;1255;60310;-77
2023/04/10 05:11:21;;;;;;;20.30;18.10;;;;;;;10.25;97.01;100329.23;105869;1256;74198;-77
2023/04/10 05:13:56;;;;;;;24.70;18.90;;;;;;;10.27;97.24;100328.88;106179;1256;70641;-76
2023/04/10 05:16:23;;;;;;;21.10;18.20;;;;;;;10.30;97.11;100327.41;106082;1258;71728;-78
2023/04/10 05:19:13;;;;;;;25.80;19.40;;;;;;;10.34;97.02;100332.42;107389;1254;60467;-78
2023/04/10 05:22:03;;;;;;;21.30;17.20;;;;;;;10.38;96.65;100330.06;107177;1258;60541;-79
2023/04/10 05:25:07;;;;;;;22.20;19.70;;;;;;;10.47;96.58;100330.72;106434;1257;74900;-82
2023/04/10 05:27:41;;;;;;;23.50;18.90;;;;;;;10.48;96.41;100327.77;107609;1252;71347;-80
2023/04/10 05:30:44;;;;;;;22.60;18.60;;;;;;;10.57;96.41;100331.61;106644;1253;70809;-80
2023/04/10 05:33:40;;;;;;;26.70;19.70;;;;;;;10.64;96.25;100334.33;105914;1261;60402;-79
2023/04/10 05:36:30;;;;;;;21.00;18.50;;;;;;;10.66;95.40;100338.52;106158;1256;60436;-78
2023/04/10 05:39:23;;;;;;;;;;;;;;;10.62;95.60;100335.64;105992;1260;74197;-74
2023/04/10 05:42:02;;;;;;;23.00;18.10;;;;;;;10.67;95.32;100340.59;106177;1254;70562;-76
2023/04/10 05:44:45;;;;;;;19.50;17.40;;;;;;;10.67;94.96;100336.29;106052;1254;72948;-76
2023/04/10 05:47:31;;;;;;;20.10;18.00;;;;;;;10.62;95.30;100339.92;106036;1253;61248;-75
2023/04/10 05:50:25;;;;;;;19.40;17.40;;;;;;;10.63;95.17;100341.39;106022;1263;60627;-76
2023/04/10 05:53:12;;;;;;;19.70;17.20;;;;;;;10.60;95.19;100342.46;105920;1257;72952;-74
2023/04/10 05:55:50;;;;;;;19.60;17.30;;;;;;;10.56;95.54;100342.82;106272;1257;69789;-75
2023/04/10 05:58:40;;;;;;;19.30;17.30;;;;;;;10.56;95.54;100344.48;106968;1253;71753;-76
2023/04/10 06:01:39;;;;;;;18.10;16.20;;;;;;;10.60;95.26;100346.04;107531;1254;60423;-75
2023/04/10 06:04:08;;;;;;;23.00;16.20;;;;;;;10.61;95.19;100347.55;107844;1253;60452;-76
2023/04/10 06:06:37;;;;;;;20.40;14.70;;;;;;;10.62;95.20;100345.80;107821;1253;74187;-74
2023/04/10 06:09:07;;;;;;;16.60;14.90;;;;;;;10.66;95.15;100348.62;108115;1253;68720;-75
2023/04/10 06:11:35;;;;;;;17.20;15.10;;;;;;;10.65;95.66;100348.71;107340;1253;72844;-74
2023/04/10 06:14:06;;;;;;;17.80;15.60;;;;;;;10.68;95.57;100353.95;108467;1253;60442;-75
2023/04/10 06:16:40;;;;;;;19.10;15.60;;;;;;;10.67;95.65;100352.02;107945;1253;60432;-77
2023/04/10 06:19:08;;;;;;;16.30;14.60;;;;;;;10.72;95.18;100359.20;107911;1256;73203;-76
2023/04/10 06:21:36;;;;;;;20.30;16.70;;;;;;;10.77;94.65;100358.11;107906;1254;69185;-76
2023/04/10 06:24:04;;;;;;;18.30;16.40;;;;;;;10.73;94.89;100359.58;107848;1257;73008;-75
2023/04/10 06:26:31;;;;;;;19.90;17.80;;;;;;;10.74;94.37;100363.04;107726;1254;63127;-74
2023/04/10 06:28:57;;;;;;;18.70;16.60;;;;;;;10.77;94.19;100360.73;107729;1254;60580;-75
2023/04/10 06:31:26;;;;;;;20.60;16.60;;;;;;;10.79;94.26;100362.29;107515;1255;71378;-76
2023/04/10 06:33:53;;;;;;;21.00;17.60;;;;;;;10.86;94.24;100356.73;107818;1257;69454;-73
2023/04/10 06:36:20;;;;;;;20.10;16.10;;;;;;;10.94;93.94;100361.17;107541;1257;71694;-74
2023/04/10 06:38:50;;;;;;;18.60;16.30;;;;;;;10.96;93.76;100361.67;107412;1253;60636;-75
2023/04/10 06:41:18;;;;;;;18.50;16.10;;;;;;;10.99;93.47;100361.60;107655;1253;61220;-77
2023/04/10 06:43:49;;;;;;;22.10;16.90;;;;;;;11.00;93.24;100362.14;107803;1253;73778;-73
2023/04/10 06:46:17;;;;;;;18.80;16.60;;;;;;;10.99;93.08;100359.27;107940;1252;71068;-76
2023/04/10 06:48:48;;;;;;;19.70;15.90;;;;;;;11.02;93.25;100363.22;107780;1254;72203;-73
2023/04/10 06:51:14;;;;;;;19.30;17.30;;;;;;;11.04;93.02;100363.75;107355;1258;60457;-76
2023/04/10 06:53:41;;;;;;;18.90;16.00;;;;;;;11.07;93.31;100364.34;107555;1257;60518;-76
2023/04/10 06:56:16;;;;;;;21.60;16.30;;;;;;;11.10;92.89;100364.70;107599;1256;73566;-75
2023/04/10 06:58:47;;;;;;;18.50;15.40;;;;;;;11.07;92.69;100366.30;107369;1254;70440;-76
2023/04/10 07:01:16;;;;;;;20.30;15.70;;;;;;;11.04;92.65;100365.69;107431;1254;72898;-75
2023/04/10 07:03:43;;;;;;;18.60;15.10;;;;;;;11.08;92.14;100366.21;107750;1255;60621;-77
2023/04/10 07:06:13;;;;;;;21.90;16.10;;;;;;;11.02;92.18;100371.54;108119;1256;61231;-74
2023/04/10 07:08:54;;;;;;;22.60;16.00;;;;;;;10.98;92.16;100373.59;107670;1254;72660;-75
2023/04/10 07:11:22;;;;;;;21.30;16.10;;;;;;;10.98;92.47;100372.49;107446;1254;70429;-73
2023/04/10 07:13:52;;;;;;;23.00;17.60;;;;;;;10.94;92.70;100375.08;107065;1255;73759;-76
2023/04/10 07:16:26;;;;;;;21.70;15.90;;;;;;;10.90;92.54;100372.63;107460;1253;61940;-75
2023/04/10 07:18:54;;;;;;;24.40;17.10;;;;;;;10.92;92.72;100374.36;107831;1254;61249;-74
2023/04/10 07:21:21;;;;;;;20.70;17.10;;;;;;;10.90;92.82;100373.98;107781;1254;72909;-75
2023/04/10 07:23:56;;;;;;;21.20;16.80;;;;;;;10.91;92.73;100376.78;107873;1254;69644;-76
2023/04/10 07:26:23;;;;;;;20.80;17.20;;;;;;;11.00;92.99;100378.54;107750;1260;72625;-76
2023/04/10 07:28:50;;;;;;;17.10;15.20;;;;;;;11.00;92.98;100373.84;107506;1257;60422;-76
2023/04/10 07:31:20;;;;;;;19.70;15.40;;;;;;;11.00;93.14;100377.56;107912;1254;60533;-77
2023/04/10 07:33:48;;;;;;;18.30;16.00;;;;;;;11.04;93.13;100386.09;107852;1254;75027;-77
2023/04/10 07:36:15;;;;;;;17.40;15.40;;;;;;;10.97;93.71;100381.79;107791;1256;70150;-77
2023/04/10 07:38:43;;;;;;;18.80;15.30;;;;;;;10.91;93.58;100379.24;107975;1254;72232;-76
2023/04/10 07:41:11;;;;;;;21.20;15.40;;;;;;;10.92;93.61;100377.53;108052;1253;60447;-74
2023/04/10 07:43:40;;;;;;;19.20;14.60;;;;;;;10.87;93.43;100381.02;108690;1254;58668;-77
2023/04/10 07:46:07;;;;;;;20.00;15.30;;;;;;;10.90;93.78;100383.96;108568;1256;72967;-76
2023/04/10 07:48:46;;;;;;;21.70;16.00;;;;;;;10.87;93.94;100383.30;109234;1256;69389;-81
2023/04/10 07:51:15;;;;;;;17.70;14.90;;;;;;;10.87;93.93;100384.27;108470;1259;72528;-77
2023/04/10 07:53:43;;;;;;;20.90;16.20;;;;;;;10.91;94.40;100384.49;108652;1253;60077;-75
2023/04/10 07:56:17;;;;;;;18.00;16.00;;;;;;;10.89;94.52;100386.90;107793;1257;61296;-74
2023/04/10 07:58:47;;;;;;;22.00;15.90;;;;;;;10.83;94.28;100388.69;107045;1254;73332;-76
2023/04/10 08:01:14;;;;;;;18.50;15.00;;;;;;;10.82;94.35;100391.64;106643;1256;232624;-75
2023/04/10 08:06:11;;;;;;;22.30;16.00;;;;;;;10.71;94.57;100391.48;103087;1292;600992;-75
2023/04/10 08:08:40;;;;;;;19.30;15.10;;;;;;;10.66;94.51;100391.60;105546;1266;61350;-76
2023/04/10 08:11:23;;;;;;;19.10;15.20;;;;;;;10.65;94.64;100392.98;106292;1266;60022;-75
2023/04/10 08:13:55;;;;;;;22.70;16.70;;;;;;;10.56;94.92;100392.30;107375;1270;72571;-77
2023/04/10 08:16:24;;;;;;;20.90;16.80;;;;;;;10.54;95.29;100395.28;106530;1267;70269;-76
2023/04/10 08:18:53;;;;;;;24.20;17.40;;;;;;;10.51;95.68;100397.55;106557;1269;210091;-77
2023/04/10 08:21:22;;;;;;;22.80;15.60;;;;;;;10.51;96.04;100401.27;107504;1264;62274;-77
2023/04/10 08:23:52;;;;;;;21.00;16.10;;;;;;;10.58;96.12;100399.70;107360;1264;59911;-78
2023/04/10 08:26:20;;;;;;;20.40;14.70;;;;;;;10.66;96.45;100405.95;107550;1264;71712;-77
2023/04/10 08:28:51;;;;;;;20.20;15.90;;;;;;;10.64;96.50;100405.47;107446;1264;69796;-77
2023/04/10 08:31:22;;;;;;;16.40;14.10;;;;;;;10.65;96.28;100402.59;107545;1260;71489;-77
2023/04/10 08:33:51;;;;;;;15.10;12.10;;;;;;;10.69;96.35;100402.56;107574;1266;59856;-78
2023/04/10 08:36:22;;;;;;;14.60;12.30;;;;;;;10.71;96.47;100402.52;107684;1261;60465;-78
2023/04/10 08:38:52;;;;;;;14.80;11.30;;;;;;;10.70;96.63;100401.88;107524;1262;74051;-78
2023/04/10 08:41:21;;;;;;;14.60;11.10;;;;;;;10.69;96.72;100400.34;107723;1260;68907;-77
2023/04/10 08:43:49;;;;;;;14.40;11.20;;;;;;;10.71;96.57;100399.31;107226;1260;70655;-77
2023/04/10 08:46:18;;;;;;;12.90;11.10;;;;;;;10.73;96.45;100398.71;107608;1256;60184;-76
2023/04/10 08:49:00;;;;;;;;;;;;;;;10.72;96.74;100402.52;107755;1256;60475;-75
2023/04/10 08:51:38;;;;;;;15.00;11.90;;;;;;;10.75;96.56;100400.45;107885;1259;71868;-78
2023/04/10 08:54:08;;;;;;;12.60;10.60;;;;;;;10.81;96.46;100398.34;107629;1256;69940;-77
2023/04/10 08:56:40;;;;;;;13.80;11.20;;;;;;;10.88;96.53;100399.09;107612;1257;72556;-75
2023/04/10 08:59:08;;;;;;;11.80;10.50;;;;;;;10.88;96.62;100397.58;107332;1260;60013;-76
2023/04/10 09:01:36;;;;;;;12.70;10.90;;;;;;;10.92;96.31;100400.75;107203;1256;60280;-77
2023/04/10 09:04:04;;;;;;;13.90;11.50;;;;;;;10.99;95.78;100402.01;107985;1255;73775;-77
2023/04/10 09:06:35;;;;;;;13.10;10.40;;;;;;;10.97;95.48;100402.41;107996;1254;68285;-78
2023/04/10 09:09:09;;;;;;;11.90;9.40;;;;;;;10.97;95.60;100404.88;108218;1252;73836;-75
2023/04/10 09:11:55;;;;;;;12.10;9.60;;;;;;;11.01;95.04;100403.19;107686;1253;61941;-76
2023/04/10 09:14:24;;;;;;;10.90;9.10;;;;;;;11.02;95.05;100404.39;108439;1254;60326;-76
2023/04/10 09:17:14;;;;;;;11.00;9.80;;;;;;;11.02;94.98;100401.54;108632;1254;74447;-77
2023/04/10 09:19:44;;;;;;;8.40;7.60;;;;;;;11.08;94.98;100401.58;108167;1253;70151;-76
2023/04/10 09:22:12;;;;;;;11.10;9.40;;;;;;;11.15;94.91;100403.69;107980;1254;71722;-77
2023/04/10 09:24:44;;;;;;;11.20;9.10;;;;;;;11.19;95.18;100405.15;107553;1254;59676;-76
2023/04/10 09:27:28;;;;;;;9.40;8.30;;;;;;;11.28;94.98;100403.73;107495;1254;59624;-75
2023/04/10 09:29:57;;;;;;;10.20;8.60;;;;;;;11.39;94.84;100410.89;107462;1253;72728;-76
2023/04/10 09:32:35;;;;;;;10.10;8.70;;;;;;;11.46;94.27;100405.90;107498;1254;70616;-77
2023/04/10 09:35:05;;;;;;;10.00;8.90;;;;;;;11.65;94.74;100407.10;107555;1254;71700;-77
2023/04/10 09:37:34;;;;;;;10.20;8.60;;;;;;;11.95;94.70;100403.20;107699;1254;60735;-76
2023/04/10 09:40:05;;;;;;;10.30;8.80;;;;;;;12.25;94.32;100403.07;107439;1253;59371;-77
2023/04/10 09:42:36;;;;;;;9.10;8.10;;;;;;;12.47;93.75;100402.47;108265;1254;72294;-76
2023/04/10 09:45:07;;;;;;;10.10;8.70;;;;;;;12.73;93.23;100403.11;107988;1254;70215;-75
2023/04/10 09:47:36;;;;;;;10.10;8.20;;;;;;;12.94;92.05;100405.11;107998;1254;72313;-77
2023/04/10 09:50:06;;;;;;;9.80;8.60;;;;;;;13.09;90.66;100395.93;108196;1252;60207;-77
2023/04/10 09:52:35;;;;;;;9.30;8.50;;;;;;;13.16;89.72;100394.45;108699;1252;59488;-75
2023/04/10 09:55:06;;;;;;;11.50;10.30;;;;;;;13.17;89.39;100395.27;108131;1253;71762;-77
2023/04/10 09:57:35;;;;;;;9.30;8.40;;;;;;;13.23;90.04;100398.18;108398;1252;69284;-77
2023/04/10 10:00:09;;;;;;;9.90;8.90;;;;;;;13.21;88.76;100395.61;108232;1254;73551;-78
2023/04/10 10:02:38;;;;;;;10.40;8.40;;;;;;;13.11;88.01;100395.02;108478;1253;60001;-77
2023/04/10 10:05:09;;;;;;;10.10;9.20;;;;;;;13.06;87.51;100396.00;108518;1254;60042;-77
2023/04/10 10:07:41;;;;;;;11.40;10.20;;;;;;;13.00;87.37;100394.44;108498;1256;70804;-74
2023/04/10 10:10:10;;;;;;;10.90;9.40;;;;;;;13.00;88.24;100393.23;108318;1254;69183;-76
2023/04/10 10:12:44;;;;;;;10.20;9.20;;;;;;;13.05;88.21;100385.52;108305;1253;72356;-77
2023/04/10 10:15:22;;;;;;;10.70;9.50;;;;;;;13.11;87.29;100389.65;108273;1255;59058;-77
2023/04/10 10:18:13;;;;;;;11.00;9.30;;;;;;;13.17;86.92;100383.02;108333;1252;59631;-77
2023/04/10 10:20:43;;;;;;;10.70;9.70;;;;;;;13.25;86.29;100383.91;108264;1252;73071;-77
2023/04/10 10:23:12;;;;;;;12.30;11.10;;;;;;;13.32;86.68;100381.92;108249;1253;69422;-75
2023/04/10 10:25:41;;;;;;;11.50;10.20;;;;;;;13.37;87.13;100381.94;108300;1253;71844;-75
2023/04/10 10:28:12;;;;;;;12.90;10.90;;;;;;;13.47;86.87;100385.58;108316;1257;59942;-75
2023/04/10 10:30:43;;;;;;;11.90;10.10;;;;;;;13.65;86.51;100382.19;108571;1254;59750;-75
2023/04/10 10:33:12;;;;;;;12.80;10.10;;;;;;;13.74;85.94;100387.18;108560;1253;71846;-77
2023/04/10 10:35:41;;;;;;;9.30;8.40;;;;;;;13.79;85.29;100387.71;108609;1253;69449;-76
2023/04/10 10:38:12;;;;;;;10.30;8.90;;;;;;;13.89;84.78;100383.02;108421;1254;72672;-76
2023/04/10 10:40:51;;;;;;;10.80;9.80;;;;;;;14.05;84.09;100380.70;108281;1254;60384;-77
2023/04/10 10:43:39;;;;;;;10.70;9.30;;;;;;;14.27;84.25;100376.86;108081;1253;60289;-76
2023/04/10 10:46:23;;;;;;;10.00;9.00;;;;;;;14.55;84.17;100365.46;108431;1253;71428;-77
2023/04/10 10:48:58;;;;;;;10.10;8.90;;;;;;;14.83;83.91;100370.47;108480;1252;70649;-77
2023/04/10 10:51:43;;;;;;;10.40;9.40;;;;;;;15.04;82.48;100369.21;108460;1253;71136;-75
2023/04/10 10:54:31;;;;;;;9.40;8.50;;;;;;;15.10;80.97;100370.69;108974;1252;60086;-76
2023/04/10 10:57:08;;;;;;;9.40;8.50;;;;;;;15.08;81.00;100371.25;109191;1253;59473;-79
2023/04/10 10:59:47;;;;;;;10.30;8.60;;;;;;;15.02;80.19;100375.73;108991;1253;73073;-79
2023/04/10 11:02:22;;;;;;;9.80;7.30;;;;;;;14.97;79.61;100375.60;109211;1254;70556;-80
2023/04/10 11:04:50;;;;;;;8.40;7.60;;;;;;;14.94;77.95;100375.76;109263;1253;72998;-79
2023/04/10 11:07:19;;;;;;;8.00;7.20;;;;;;;14.82;78.50;100369.19;109142;1252;61969;-77
2023/04/10 11:09:53;;;;;;;8.70;7.00;;;;;;;14.75;78.45;100370.10;109092;1253;60163;-79
2023/04/10 11:12:23;;;;;;;6.00;5.40;;;;;;;14.75;79.12;100365.28;108910;1252;73089;-78
2023/04/10 11:15:06;;;;;;;;;;;;;;;14.74;78.60;100368.60;109150;1252;68736;-78
2023/04/10 11:17:45;;;;;;;7.30;5.40;;;;;;;14.69;77.92;100371.92;109028;1252;73038;-80
2023/04/10 11:20:18;;;;;;;7.00;6.30;;;;;;;14.65;77.96;100372.40;109049;1252;59545;-78
2023/04/10 11:23:09;;;;;;;6.40;5.50;;;;;;;14.55;77.52;100368.83;108990;1253;59610;-77
2023/04/10 11:25:49;;;;;;;6.00;5.40;;;;;;;14.44;78.33;100369.27;109046;1253;72818;-78
2023/04/10 11:28:37;;;;;;;5.40;4.70;;;;;;;14.46;78.34;100368.04;109105;1252;69404;-78
2023/04/10 11:31:17;;;;;;;6.10;5.50;;;;;;;14.44;77.99;100368.20;109068;1253;71750;-75
2023/04/10 11:34:04;;;;;;;5.40;4.90;;;;;;;14.45;78.14;100364.04;108932;1253;60430;-79